createdAt,value
2023-03-29T00:02:00.762Z,7.45
2023-03-29T00:04:29.989Z,7.45
2023-03-29T00:06:56.756Z,7.40
2023-03-29T00:09:26.562Z,7.43
2023-03-29T00:11:52.866Z,7.40
2023-03-29T00:14:19.159Z,7.37
2023-03-29T00:16:46.839Z,7.37
2023-03-29T00:19:13.376Z,7.37
2023-03-29T00:21:39.709Z,7.40
2023-03-29T00:24:06.228Z,7.39
2023-03-29T00:26:32.532Z,7.39
2023-03-29T00:28:58.856Z,7.31
2023-03-29T00:31:26.111Z,7.43
2023-03-29T00:33:52.647Z,7.41
2023-03-29T00:36:18.959Z,7.43
2023-03-29T00:38:45.349Z,7.41
2023-03-29T00:41:11.800Z,7.41
2023-03-29T00:44:03.989Z,7.40
2023-03-29T00:46:31.544Z,7.39
2023-03-29T00:49:03.829Z,7.41
2023-03-29T00:51:34.255Z,7.41
2023-03-29T00:54:03.529Z,7.35
2023-03-29T00:56:35.199Z,7.39
2023-03-29T00:59:05.994Z,7.36
2023-03-29T01:01:46.522Z,7.36
2023-03-29T01:04:20.717Z,7.39
2023-03-29T01:06:58.979Z,7.41
2023-03-29T01:09:29.730Z,7.41
2023-03-29T01:12:02.723Z,7.43
2023-03-29T01:14:35.160Z,7.43
2023-03-29T01:17:01.489Z,7.42
2023-03-29T01:19:34.287Z,7.33
2023-03-29T01:22:13.571Z,7.35
2023-03-29T01:24:50.384Z,7.34
2023-03-29T01:27:28.387Z,7.33
2023-03-29T01:30:02.001Z,7.32
2023-03-29T01:32:38.741Z,7.32
2023-03-29T01:35:13.470Z,7.32
2023-03-29T01:37:45.619Z,7.32
2023-03-29T01:40:12.051Z,7.27
2023-03-29T01:42:48.419Z,7.20
2023-03-29T01:45:46.956Z,7.26
2023-03-29T01:48:17.253Z,7.27
2023-03-29T01:50:50.670Z,7.25
2023-03-29T01:53:41.139Z,7.22
2023-03-29T01:56:13.293Z,7.21
2023-03-29T01:58:48.878Z,7.19
2023-03-29T02:01:22.846Z,7.19
2023-03-29T02:03:54.533Z,7.17
2023-03-29T02:06:24.861Z,7.19
2023-03-29T02:08:52.967Z,7.18
2023-03-29T02:11:19.886Z,7.09
2023-03-29T02:13:46.481Z,7.14
2023-03-29T02:16:14.030Z,7.11
2023-03-29T02:18:44.842Z,7.09
2023-03-29T02:21:16.340Z,7.07
2023-03-29T02:23:47.485Z,7.06
2023-03-29T02:26:15.758Z,7.05
2023-03-29T02:28:42.886Z,7.05
2023-03-29T02:31:18.902Z,6.97
2023-03-29T02:33:52.051Z,7.06
2023-03-29T02:36:30.772Z,7.04
2023-03-29T02:38:59.898Z,7.04
2023-03-29T02:41:27.296Z,7.04
2023-03-29T02:43:56.636Z,7.01
2023-03-29T02:46:23.781Z,7.00
2023-03-29T02:48:53.958Z,6.99
2023-03-29T02:51:31.796Z,6.94
2023-03-29T02:54:05.519Z,6.77
2023-03-29T02:56:44.774Z,6.80
2023-03-29T02:59:12.158Z,6.66
2023-03-29T03:01:42.682Z,6.74
2023-03-29T03:04:13.074Z,6.63
2023-03-29T03:06:39.510Z,6.64
2023-03-29T03:09:05.907Z,6.70
2023-03-29T03:11:33.334Z,6.70
2023-03-29T03:13:59.914Z,6.78
2023-03-29T03:16:27.075Z,6.80
2023-03-29T03:18:54.747Z,6.80
2023-03-29T03:21:22.137Z,6.78
2023-03-29T03:23:48.636Z,6.79
2023-03-29T03:26:16.664Z,6.80
2023-03-29T03:28:43.082Z,6.82
2023-03-29T03:31:09.486Z,6.84
2023-03-29T03:33:35.800Z,6.82
2023-03-29T03:36:06.183Z,6.76
2023-03-29T03:38:33.088Z,6.78
2023-03-29T03:41:00.953Z,6.77
2023-03-29T03:43:28.654Z,6.77
2023-03-29T03:45:55.755Z,6.76
2023-03-29T03:48:23.095Z,6.74
2023-03-29T03:50:51.160Z,6.69
2023-03-29T03:53:18.519Z,6.72
2023-03-29T03:55:49.145Z,6.72
2023-03-29T03:58:16.466Z,6.62
2023-03-29T04:00:42.983Z,6.69
2023-03-29T04:03:09.847Z,6.64
2023-03-29T04:05:40.148Z,6.60
2023-03-29T04:08:06.747Z,6.56
2023-03-29T04:10:34.260Z,6.51
2023-03-29T04:13:05.121Z,6.49
2023-03-29T04:15:33.035Z,6.47
2023-03-29T04:18:00.636Z,6.38
2023-03-29T04:20:28.121Z,6.39
2023-03-29T04:22:54.403Z,6.39
2023-03-29T04:25:22.261Z,6.38
2023-03-29T04:27:50.367Z,6.42
2023-03-29T04:30:16.981Z,6.41
2023-03-29T04:32:43.365Z,6.43
2023-03-29T04:35:10.125Z,6.47
2023-03-29T04:37:40.195Z,6.42
2023-03-29T04:40:14.082Z,6.47
2023-03-29T04:42:45.893Z,6.38
2023-03-29T04:45:14.041Z,6.44
2023-03-29T04:47:41.897Z,6.46
2023-03-29T04:50:08.619Z,6.41
2023-03-29T04:52:35.447Z,6.42
2023-03-29T04:55:02.751Z,6.38
2023-03-29T04:57:29.339Z,6.38
2023-03-29T04:59:56.362Z,6.40
2023-03-29T05:02:22.897Z,6.39
2023-03-29T05:04:49.332Z,6.39
2023-03-29T05:07:17.893Z,6.43
2023-03-29T05:09:44.363Z,6.46
2023-03-29T05:12:11.053Z,6.43
2023-03-29T05:14:37.406Z,6.47
2023-03-29T05:17:04.984Z,6.50
2023-03-29T05:19:31.919Z,6.52
2023-03-29T05:21:59.027Z,6.54
2023-03-29T05:24:25.396Z,6.52
2023-03-29T05:26:51.968Z,6.48
2023-03-29T05:29:18.849Z,6.64
2023-03-29T05:31:45.263Z,6.70
2023-03-29T05:34:11.656Z,6.68
2023-03-29T05:36:39.044Z,6.78
2023-03-29T05:39:06.369Z,6.77
2023-03-29T05:41:33.645Z,6.91
2023-03-29T05:43:59.948Z,6.97
2023-03-29T05:46:26.898Z,7.02
2023-03-29T05:48:53.136Z,7.07
2023-03-29T05:51:22.393Z,7.17
2023-03-29T05:53:48.672Z,7.26
2023-03-29T05:56:16.301Z,7.13
2023-03-29T05:58:42.942Z,7.31
2023-03-29T06:01:14.380Z,7.35
2023-03-29T06:03:41.128Z,7.47
2023-03-29T06:06:08.775Z,7.47
2023-03-29T06:08:36.837Z,7.45
2023-03-29T06:11:08.902Z,7.50
2023-03-29T06:13:37.076Z,7.57
2023-03-29T06:16:04.317Z,7.66
2023-03-29T06:18:30.648Z,7.69
2023-03-29T06:20:56.953Z,7.71
2023-03-29T06:23:23.538Z,7.72
2023-03-29T06:25:51.423Z,7.67
2023-03-29T06:28:19.100Z,7.73
2023-03-29T06:30:46.036Z,7.76
2023-03-29T06:33:14.147Z,7.85
2023-03-29T06:35:47.177Z,7.83
2023-03-29T06:38:14.956Z,7.88
2023-03-29T06:40:43.094Z,7.95
2023-03-29T06:43:09.874Z,8.01
2023-03-29T06:45:37.755Z,8.07
2023-03-29T06:48:05.852Z,8.02
2023-03-29T06:50:32.526Z,8.06
2023-03-29T06:52:58.964Z,8.00
2023-03-29T06:55:25.938Z,8.09
2023-03-29T06:57:53.373Z,8.12
2023-03-29T07:00:27.702Z,8.09
2023-03-29T07:02:56.214Z,8.11
2023-03-29T07:05:23.866Z,8.08
2023-03-29T07:07:55.009Z,8.11
2023-03-29T07:10:23.508Z,8.16
2023-03-29T07:12:49.847Z,8.23
2023-03-29T07:15:16.426Z,8.34
2023-03-29T07:17:43.000Z,8.49
2023-03-29T07:20:15.707Z,8.57
2023-03-29T07:22:43.923Z,8.66
2023-03-29T07:25:12.261Z,8.74
2023-03-29T07:27:40.739Z,8.86
2023-03-29T07:30:11.141Z,8.96
2023-03-29T07:32:39.496Z,9.10
2023-03-29T07:35:07.258Z,9.24
2023-03-29T07:37:37.332Z,9.36
2023-03-29T07:40:09.097Z,9.43
2023-03-29T07:42:38.891Z,9.65
2023-03-29T07:45:08.423Z,9.74
2023-03-29T07:47:35.159Z,9.89
2023-03-29T07:50:02.276Z,9.97
2023-03-29T07:52:29.990Z,10.10
2023-03-29T07:54:56.918Z,10.39
2023-03-29T07:57:24.841Z,10.41
2023-03-29T07:59:51.738Z,10.43
2023-03-29T08:02:18.006Z,10.56
2023-03-29T08:04:44.797Z,10.56
2023-03-29T08:07:11.187Z,10.57
2023-03-29T08:09:37.516Z,10.62
2023-03-29T08:12:04.465Z,10.72
2023-03-29T08:14:31.138Z,10.70
2023-03-29T08:16:57.625Z,10.79
2023-03-29T08:19:23.961Z,10.80
2023-03-29T08:21:50.438Z,10.84
2023-03-29T08:24:18.566Z,10.87
2023-03-29T08:26:47.030Z,11.00
2023-03-29T08:29:13.398Z,11.06
2023-03-29T08:31:39.882Z,11.04
2023-03-29T08:34:06.353Z,11.31
2023-03-29T08:36:33.019Z,11.41
2023-03-29T08:38:59.574Z,11.55
2023-03-29T08:41:57.668Z,11.61
2023-03-29T08:44:42.062Z,11.79
2023-03-29T08:47:35.627Z,12.08
2023-03-29T08:50:02.281Z,12.21
2023-03-29T08:52:41.155Z,12.61
2023-03-29T08:55:15.380Z,12.83
2023-03-29T08:57:47.839Z,12.94
2023-03-29T09:00:22.560Z,12.98
2023-03-29T09:02:51.865Z,12.74
2023-03-29T09:05:25.674Z,12.56
2023-03-29T09:07:53.245Z,12.36
2023-03-29T09:10:26.335Z,12.31
2023-03-29T09:13:03.289Z,12.22
2023-03-29T09:15:53.704Z,12.09
2023-03-29T09:18:33.726Z,12.17
2023-03-29T09:21:16.975Z,12.38
2023-03-29T09:24:03.336Z,12.60
2023-03-29T09:26:52.712Z,12.62
2023-03-29T09:29:47.290Z,12.54
2023-03-29T09:32:20.322Z,12.39
2023-03-29T09:34:59.577Z,12.30
2023-03-29T09:37:37.894Z,12.22
2023-03-29T09:40:11.927Z,12.21
2023-03-29T09:42:39.497Z,12.21
2023-03-29T09:45:08.568Z,12.34
2023-03-29T09:47:47.177Z,12.43
2023-03-29T09:50:30.041Z,12.52
2023-03-29T09:52:57.198Z,12.71
2023-03-29T09:55:28.300Z,12.91
2023-03-29T09:57:57.940Z,12.99
2023-03-29T10:00:24.964Z,13.05
2023-03-29T10:02:52.833Z,12.95
2023-03-29T10:05:19.895Z,12.92
2023-03-29T10:07:54.288Z,12.84
2023-03-29T10:10:24.095Z,12.79
2023-03-29T10:12:52.913Z,12.76
2023-03-29T10:15:29.388Z,12.73
2023-03-29T10:18:10.666Z,12.55
2023-03-29T10:20:39.874Z,12.62
2023-03-29T10:23:08.403Z,12.56
2023-03-29T10:25:42.632Z,12.58
2023-03-29T10:28:17.511Z,12.58
2023-03-29T10:30:47.419Z,12.69
2023-03-29T10:33:21.064Z,12.83
2023-03-29T10:35:48.602Z,12.94
2023-03-29T10:38:18.708Z,13.04
2023-03-29T10:40:48.005Z,13.32
2023-03-29T10:43:22.378Z,13.74
2023-03-29T10:45:51.728Z,14.31
2023-03-29T10:48:19.276Z,14.82
2023-03-29T10:50:51.352Z,15.23
2023-03-29T10:53:24.841Z,15.64
2023-03-29T10:56:15.372Z,15.90
2023-03-29T10:59:22.576Z,16.10
2023-03-29T11:01:58.068Z,16.10
2023-03-29T11:04:42.761Z,16.02
2023-03-29T11:07:27.794Z,15.86
2023-03-29T11:10:32.350Z,15.88
2023-03-29T11:13:03.534Z,16.15
2023-03-29T11:15:58.088Z,16.26
2023-03-29T11:18:46.103Z,16.31
2023-03-29T11:21:33.879Z,16.22
2023-03-29T11:24:31.203Z,15.89
2023-03-29T11:27:37.706Z,15.71
2023-03-29T11:30:29.004Z,15.41
2023-03-29T11:33:15.030Z,15.33
2023-03-29T11:35:52.489Z,15.27
2023-03-29T11:38:28.176Z,15.17
2023-03-29T11:41:03.209Z,15.15
2023-03-29T11:43:42.719Z,14.94
2023-03-29T11:46:09.300Z,15.02
2023-03-29T11:48:41.098Z,15.00
2023-03-29T11:51:16.066Z,14.91
2023-03-29T11:54:00.709Z,14.98
2023-03-29T11:56:39.359Z,15.12
2023-03-29T11:59:22.174Z,15.28
2023-03-29T12:01:56.445Z,15.54
2023-03-29T12:04:33.869Z,15.82
2023-03-29T12:07:11.994Z,16.21
2023-03-29T12:09:56.147Z,16.60
2023-03-29T12:12:48.703Z,17.19
2023-03-29T12:15:22.900Z,18.00
2023-03-29T12:17:59.073Z,18.48
2023-03-29T12:20:31.164Z,18.46
2023-03-29T12:22:58.896Z,18.32
2023-03-29T12:25:31.597Z,18.31
2023-03-29T12:28:05.579Z,18.68
2023-03-29T12:30:40.803Z,18.88
2023-03-29T12:33:29.108Z,18.80
2023-03-29T12:36:07.623Z,18.93
2023-03-29T12:38:34.694Z,18.80
2023-03-29T12:41:08.855Z,18.64
2023-03-29T12:43:43.378Z,18.25
2023-03-29T12:46:25.628Z,18.05
2023-03-29T12:48:57.976Z,17.96
2023-03-29T12:51:32.280Z,17.68
2023-03-29T12:54:21.896Z,17.30
2023-03-29T12:57:01.080Z,17.07
2023-03-29T12:59:43.580Z,16.85
2023-03-29T13:02:13.658Z,16.78
2023-03-29T13:04:43.429Z,16.75
2023-03-29T13:07:27.372Z,16.73
2023-03-29T13:10:10.463Z,16.81
2023-03-29T13:12:43.045Z,17.01
2023-03-29T13:15:16.619Z,17.19
2023-03-29T13:18:15.363Z,17.30
2023-03-29T13:20:58.711Z,17.44
2023-03-29T13:23:51.794Z,17.63
2023-03-29T13:26:29.230Z,17.61
2023-03-29T13:29:07.272Z,17.46
2023-03-29T13:31:59.993Z,17.22
2023-03-29T13:34:35.282Z,17.21
2023-03-29T13:37:04.661Z,17.37
2023-03-29T13:39:36.568Z,17.45
2023-03-29T13:42:19.628Z,17.63
2023-03-29T13:44:49.084Z,17.95
2023-03-29T13:47:36.446Z,18.22
2023-03-29T13:50:16.501Z,18.52
2023-03-29T13:52:58.726Z,18.68
2023-03-29T13:55:30.942Z,18.67
2023-03-29T13:58:07.166Z,18.67
2023-03-29T14:00:46.076Z,18.70
2023-03-29T14:03:15.451Z,18.78
2023-03-29T14:05:47.926Z,18.89
2023-03-29T14:08:26.092Z,18.91
2023-03-29T14:10:53.968Z,18.61
2023-03-29T14:13:25.103Z,18.34
2023-03-29T14:16:02.852Z,18.17
2023-03-29T14:18:36.696Z,18.15
2023-03-29T14:21:03.832Z,17.97
2023-03-29T14:23:37.845Z,17.88
2023-03-29T14:26:08.154Z,17.71
2023-03-29T14:28:34.612Z,17.55
2023-03-29T14:31:01.017Z,17.46
2023-03-29T14:33:34.572Z,17.41
2023-03-29T14:36:04.043Z,17.37
2023-03-29T14:38:32.185Z,17.41
2023-03-29T14:41:00.376Z,17.39
2023-03-29T14:43:31.203Z,17.30
2023-03-29T14:45:58.394Z,17.24
2023-03-29T14:48:25.737Z,17.25
2023-03-29T14:50:52.598Z,17.36
2023-03-29T14:53:22.049Z,17.34
2023-03-29T14:55:52.196Z,17.50
2023-03-29T14:58:31.790Z,17.52
2023-03-29T15:01:05.276Z,17.50
2023-03-29T15:03:43.402Z,17.63
2023-03-29T15:06:12.113Z,17.68
2023-03-29T15:08:44.098Z,17.80
2023-03-29T15:11:28.964Z,17.86
2023-03-29T15:14:02.512Z,17.95
2023-03-29T15:16:30.406Z,18.02
2023-03-29T15:18:58.000Z,17.93
2023-03-29T15:21:31.182Z,17.87
2023-03-29T15:24:00.456Z,17.70
2023-03-29T15:26:33.925Z,17.62
2023-03-29T15:29:10.710Z,17.64
2023-03-29T15:31:39.666Z,17.49
2023-03-29T15:34:25.568Z,17.68
2023-03-29T15:36:52.365Z,17.73
2023-03-29T15:39:19.932Z,17.73
2023-03-29T15:41:48.928Z,17.72
2023-03-29T15:44:19.795Z,17.66
2023-03-29T15:46:46.582Z,17.54
2023-03-29T15:49:14.141Z,17.51
2023-03-29T15:51:41.192Z,17.40
2023-03-29T15:54:07.875Z,17.34
2023-03-29T15:56:37.670Z,17.25
2023-03-29T15:59:04.422Z,17.20
2023-03-29T16:01:34.433Z,17.12
2023-03-29T16:04:14.115Z,17.10
2023-03-29T16:06:41.223Z,17.08
2023-03-29T16:09:08.715Z,17.02
2023-03-29T16:11:35.263Z,16.97
2023-03-29T16:14:01.704Z,16.86
2023-03-29T16:16:28.122Z,16.97
2023-03-29T16:18:54.459Z,16.91
2023-03-29T16:21:22.185Z,16.88
2023-03-29T16:23:48.545Z,16.91
2023-03-29T16:26:16.595Z,16.73
2023-03-29T16:28:43.318Z,16.87
2023-03-29T16:31:11.761Z,16.85
2023-03-29T16:33:38.576Z,16.87
2023-03-29T16:36:05.566Z,16.88
2023-03-29T16:38:33.701Z,16.88
2023-03-29T16:41:00.457Z,16.81
2023-03-29T16:43:27.013Z,16.81
2023-03-29T16:45:53.456Z,16.79
2023-03-29T16:48:19.910Z,16.77
2023-03-29T16:50:49.777Z,16.76
2023-03-29T16:53:18.418Z,16.70
2023-03-29T16:55:48.348Z,16.60
2023-03-29T16:58:15.286Z,16.40
2023-03-29T17:00:43.396Z,16.51
2023-03-29T17:03:10.860Z,16.42
2023-03-29T17:05:41.258Z,16.50
2023-03-29T17:08:09.917Z,16.44
2023-03-29T17:10:36.502Z,16.42
2023-03-29T17:13:02.855Z,16.36
2023-03-29T17:15:29.394Z,16.34
2023-03-29T17:17:55.690Z,16.34
2023-03-29T17:20:22.065Z,16.28
2023-03-29T17:22:51.984Z,16.19
2023-03-29T17:25:18.546Z,16.21
2023-03-29T17:27:46.028Z,16.22
2023-03-29T17:30:12.732Z,16.16
2023-03-29T17:32:41.263Z,16.14
2023-03-29T17:35:09.336Z,16.01
2023-03-29T17:37:36.315Z,16.01
2023-03-29T17:40:13.835Z,15.95
2023-03-29T17:42:41.446Z,15.90
2023-03-29T17:45:10.176Z,15.85
2023-03-29T17:47:37.752Z,15.80
2023-03-29T17:50:06.058Z,15.74
2023-03-29T17:52:32.415Z,15.71
2023-03-29T17:54:58.844Z,15.60
2023-03-29T17:57:25.257Z,15.58
2023-03-29T17:59:51.672Z,15.50
2023-03-29T18:02:21.259Z,15.46
2023-03-29T18:04:48.337Z,15.39
2023-03-29T18:07:14.916Z,15.29
2023-03-29T18:09:41.191Z,15.29
2023-03-29T18:12:08.191Z,15.23
2023-03-29T18:14:35.096Z,15.20
2023-03-29T18:17:02.450Z,15.16
2023-03-29T18:19:28.859Z,15.10
2023-03-29T18:21:56.141Z,15.09
2023-03-29T18:24:22.454Z,15.04
2023-03-29T18:26:48.797Z,15.04
2023-03-29T18:29:15.457Z,15.07
2023-03-29T18:31:42.687Z,15.16
2023-03-29T18:34:09.090Z,15.20
2023-03-29T18:36:35.440Z,15.19
2023-03-29T18:39:05.617Z,15.14
2023-03-29T18:41:34.476Z,15.08
2023-03-29T18:44:00.896Z,15.05
2023-03-29T18:46:30.391Z,15.01
2023-03-29T18:48:58.074Z,15.00
2023-03-29T18:51:26.008Z,14.90
2023-03-29T18:53:52.776Z,14.91
2023-03-29T18:56:19.043Z,14.94
2023-03-29T18:58:46.195Z,14.96
2023-03-29T19:01:14.040Z,14.97
2023-03-29T19:03:40.829Z,14.98
2023-03-29T19:06:07.875Z,14.98
2023-03-29T19:08:36.569Z,14.94
2023-03-29T19:11:05.796Z,14.91
2023-03-29T19:13:32.131Z,14.88
2023-03-29T19:15:58.770Z,14.84
2023-03-29T19:18:25.870Z,14.84
2023-03-29T19:20:54.028Z,14.84
2023-03-29T19:23:21.806Z,14.86
2023-03-29T19:25:58.649Z,14.82
2023-03-29T19:28:25.850Z,14.88
2023-03-29T19:30:52.782Z,14.94
2023-03-29T19:33:19.982Z,14.84
2023-03-29T19:35:46.629Z,14.96
2023-03-29T19:38:13.048Z,15.03
2023-03-29T19:40:39.404Z,15.08
2023-03-29T19:43:05.854Z,15.12
2023-03-29T19:45:32.136Z,15.13
2023-03-29T19:48:02.962Z,15.18
2023-03-29T19:50:31.492Z,15.22
2023-03-29T19:52:58.397Z,15.26
2023-03-29T19:55:25.369Z,15.29
2023-03-29T19:57:52.277Z,15.30
2023-03-29T20:00:19.023Z,15.28
2023-03-29T20:02:45.341Z,15.33
2023-03-29T20:05:12.461Z,15.30
2023-03-29T20:07:38.796Z,15.44
2023-03-29T20:10:05.737Z,15.55
2023-03-29T20:12:32.025Z,15.59
2023-03-29T20:14:58.324Z,15.60
2023-03-29T20:17:24.745Z,15.64
2023-03-29T20:19:51.119Z,15.66
2023-03-29T20:22:18.806Z,15.57
2023-03-29T20:24:45.525Z,15.56
2023-03-29T20:27:12.184Z,15.56
2023-03-29T20:29:38.540Z,15.52
2023-03-29T20:32:05.035Z,15.50
2023-03-29T20:34:31.440Z,15.49
2023-03-29T20:37:00.765Z,15.48
2023-03-29T20:39:29.499Z,15.49
2023-03-29T20:41:55.817Z,15.58
2023-03-29T20:44:26.115Z,15.62
2023-03-29T20:47:03.226Z,15.69
2023-03-29T20:49:37.586Z,15.82
2023-03-29T20:52:10.666Z,15.89
2023-03-29T20:54:37.289Z,15.97
2023-03-29T20:57:05.027Z,15.99
2023-03-29T20:59:31.476Z,16.06
2023-03-29T21:01:58.306Z,16.23
2023-03-29T21:04:24.824Z,16.24
2023-03-29T21:06:51.314Z,16.33
2023-03-29T21:09:22.304Z,16.34
2023-03-29T21:11:49.384Z,16.34
2023-03-29T21:14:19.587Z,16.34
2023-03-29T21:16:47.242Z,16.40
2023-03-29T21:19:14.828Z,16.38
2023-03-29T21:21:42.719Z,16.42
2023-03-29T21:24:10.773Z,16.39
2023-03-29T21:26:37.183Z,16.39
2023-03-29T21:29:03.607Z,16.37
2023-03-29T21:31:30.131Z,16.37
2023-03-29T21:33:56.632Z,16.41
2023-03-29T21:36:23.556Z,16.43
2023-03-29T21:38:50.709Z,16.44
2023-03-29T21:41:17.606Z,16.45
2023-03-29T21:43:44.500Z,16.36
2023-03-29T21:46:11.756Z,16.30
2023-03-29T21:48:38.379Z,16.30
2023-03-29T21:51:05.287Z,16.19
2023-03-29T21:53:31.838Z,16.12
2023-03-29T21:55:58.201Z,16.21
2023-03-29T21:58:24.566Z,16.12
2023-03-29T22:00:51.366Z,16.06
2023-03-29T22:03:17.894Z,16.07
2023-03-29T22:05:55.328Z,15.95
2023-03-29T22:08:26.065Z,15.97
2023-03-29T22:10:57.300Z,15.93
2023-03-29T22:13:25.363Z,15.85
2023-03-29T22:15:56.104Z,15.78
2023-03-29T22:18:22.500Z,15.72
2023-03-29T22:20:48.976Z,15.70
2023-03-29T22:23:15.527Z,15.59
2023-03-29T22:25:41.792Z,15.56
2023-03-29T22:28:08.136Z,15.52
2023-03-29T22:30:34.501Z,15.57
2023-03-29T22:33:00.929Z,15.63
2023-03-29T22:35:27.302Z,15.73
2023-03-29T22:37:53.611Z,15.82
2023-03-29T22:40:19.917Z,15.88
2023-03-29T22:42:46.251Z,15.94
2023-03-29T22:45:12.600Z,16.14
2023-03-29T22:47:38.956Z,16.33
2023-03-29T22:50:07.078Z,16.38
2023-03-29T22:52:33.389Z,16.36
2023-03-29T22:54:59.697Z,16.48
2023-03-29T22:57:26.076Z,16.55
2023-03-29T22:59:52.379Z,16.66
2023-03-29T23:02:18.787Z,16.79
2023-03-29T23:04:45.542Z,16.83
2023-03-29T23:07:12.159Z,16.86
2023-03-29T23:09:38.495Z,16.86
2023-03-29T23:12:05.512Z,16.87
2023-03-29T23:14:33.671Z,16.91
2023-03-29T23:17:00.210Z,16.87
2023-03-29T23:19:26.992Z,16.85
2023-03-29T23:21:53.328Z,16.83
2023-03-29T23:24:19.666Z,16.80
2023-03-29T23:26:48.896Z,16.73
2023-03-29T23:29:15.378Z,16.83
2023-03-29T23:31:41.903Z,16.85
2023-03-29T23:34:09.102Z,16.84
2023-03-29T23:36:35.503Z,16.67
2023-03-29T23:39:01.901Z,16.67
2023-03-29T23:41:30.395Z,16.69
2023-03-29T23:43:57.571Z,16.63
2023-03-29T23:46:24.510Z,16.71
2023-03-29T23:48:50.987Z,16.71
2023-03-29T23:51:18.673Z,16.79
2023-03-29T23:53:44.985Z,16.77
2023-03-29T23:56:11.761Z,16.76
2023-03-29T23:58:38.125Z,16.80
